Time;durP1;ratioP1;P1;durP2;ratioP2;P2;SDS_P1;SDS_P2;PMS_P1;PMS_P2;Temp;Humidity;BMP_temperature;BMP_pressure;BME280_temperature;BME280_humidity;BME280_pressure;Samples;Min_cycle;Max_cycle;Signal;HPM_P1;HPM_P2
2021/01/27 00:00:15;;;;;;;6.35;5.20;;;-2.40;71.70;;;;;;5200677;28;20037;-71
2021/01/27 00:02:47;;;;;;;5.35;4.80;;;-2.50;71.60;;;;;;5201079;28;20041;-71
2021/01/27 00:05:30;;;;;;;5.53;5.03;;;-2.50;71.60;;;;;;5196089;28;20045;-72
2021/01/27 00:08:03;;;;;;;5.78;5.18;;;-2.60;71.70;;;;;;5196448;28;20505;-71
2021/01/27 00:10:35;;;;;;;6.05;5.07;;;-2.60;71.80;;;;;;5197467;28;20724;-71
2021/01/27 00:13:10;;;;;;;5.40;4.90;;;-2.60;71.60;;;;;;5196262;28;20042;-71
2021/01/27 00:15:42;;;;;;;6.03;5.05;;;-2.60;71.60;;;;;;5194900;28;20812;-71
2021/01/27 00:18:18;;;;;;;5.68;5.07;;;-2.50;72.00;;;;;;5195675;28;20072;-69
2021/01/27 00:20:49;;;;;;;5.70;5.20;;;-2.50;71.80;;;;;;5197143;28;20041;-72
2021/01/27 00:23:21;;;;;;;5.45;4.95;;;-2.50;71.30;;;;;;5195968;28;20073;-71
2021/01/27 00:25:53;;;;;;;5.93;5.32;;;-2.40;71.10;;;;;;5194001;28;20052;-71
2021/01/27 00:28:24;;;;;;;6.95;5.45;;;-2.40;71.10;;;;;;5194777;28;20064;-69
2021/01/27 00:30:56;;;;;;;6.30;5.30;;;-2.40;72.00;;;;;;5197378;28;20455;-71
2021/01/27 00:33:27;;;;;;;5.60;5.10;;;-2.30;71.60;;;;;;5197429;28;20037;-70
2021/01/27 00:35:59;;;;;;;5.75;5.22;;;-2.30;71.00;;;;;;5196882;28;20115;-69
2021/01/27 00:38:31;;;;;;;6.07;5.47;;;-2.40;71.30;;;;;;5194254;28;20045;-71
2021/01/27 00:41:02;;;;;;;6.00;5.40;;;-2.40;71.20;;;;;;5193710;28;20059;-71
2021/01/27 00:43:34;;;;;;;5.93;5.10;;;-2.40;71.00;;;;;;5173163;28;20728;-72
2021/01/27 00:46:06;;;;;;;7.78;5.40;;;-2.50;71.00;;;;;;5194371;28;20053;-70
2021/01/27 00:48:37;;;;;;;5.55;4.97;;;-2.40;71.00;;;;;;5193486;28;20184;-70
2021/01/27 00:51:10;;;;;;;5.95;4.93;;;-2.40;71.20;;;;;;5162247;28;20045;-69
2021/01/27 00:53:42;;;;;;;7.82;5.20;;;-2.40;71.20;;;;;;5195127;28;20045;-69
2021/01/27 00:56:18;;;;;;;5.38;4.88;;;-2.40;71.40;;;;;;5210656;28;20041;-71
2021/01/27 00:58:49;;;;;;;5.85;5.03;;;-2.50;71.30;;;;;;5190670;28;20547;-71
2021/01/27 01:01:32;;;;;;;5.70;5.20;;;-2.50;71.70;;;;;;5211530;28;20162;-71
2021/01/27 01:04:05;;;;;;;5.30;4.80;;;-2.50;71.70;;;;;;5192509;28;20176;-71
2021/01/27 01:06:36;;;;;;;5.75;5.03;;;-2.50;71.50;;;;;;5195227;28;20052;-71
2021/01/27 01:09:08;;;;;;;5.32;4.82;;;-2.60;71.40;;;;;;5195240;28;20687;-69
2021/01/27 01:11:39;;;;;;;5.25;4.72;;;-2.60;71.20;;;;;;5196448;28;20544;-69
2021/01/27 01:14:11;;;;;;;7.82;5.35;;;-2.60;71.90;;;;;;5195785;28;20039;-70
2021/01/27 01:16:42;;;;;;;5.63;5.13;;;-2.60;71.90;;;;;;5191847;28;20045;-70
2021/01/27 01:19:14;;;;;;;5.75;5.13;;;-2.60;71.40;;;;;;5194754;28;20069;-71
2021/01/27 01:21:45;;;;;;;6.93;5.25;;;-2.60;71.20;;;;;;5194534;28;20180;-70
2021/01/27 01:24:17;;;;;;;6.63;4.90;;;-2.60;71.70;;;;;;5196210;28;20099;-71
2021/01/27 01:26:49;;;;;;;5.57;4.97;;;-2.70;71.20;;;;;;5194288;28;20049;-72
2021/01/27 01:29:20;;;;;;;5.75;5.15;;;-2.70;71.10;;;;;;5193319;28;20071;-71
2021/01/27 01:31:52;;;;;;;5.43;4.93;;;-2.80;71.70;;;;;;5195563;28;20037;-70
2021/01/27 01:34:24;;;;;;;5.28;4.78;;;-2.90;71.10;;;;;;5194970;28;20044;-72
2021/01/27 01:36:55;;;;;;;5.60;5.10;;;-3.00;70.00;;;;;;5193092;28;20041;-69
2021/01/27 01:39:27;;;;;;;6.75;4.72;;;-3.10;71.00;;;;;;5194147;28;20543;-71
2021/01/27 01:41:58;;;;;;;5.63;5.10;;;-3.10;71.20;;;;;;5187041;28;20050;-72
2021/01/27 01:44:29;;;;;;;5.32;4.80;;;-3.10;71.30;;;;;;5196206;28;20056;-70
2021/01/27 01:47:01;;;;;;;5.30;4.78;;;-3.20;71.20;;;;;;5183760;28;20049;-71
2021/01/27 01:49:33;;;;;;;5.32;4.82;;;-3.10;71.30;;;;;;5195140;28;20116;-72
2021/01/27 01:52:04;;;;;;;5.57;5.07;;;-3.20;71.50;;;;;;5192425;28;20049;-71
2021/01/27 01:54:43;;;;;;;5.07;4.57;;;-3.20;71.10;;;;;;5194568;28;20041;-71
2021/01/27 01:57:22;;;;;;;5.30;4.80;;;-3.20;71.50;;;;;;5197605;28;20049;-70
2021/01/27 01:59:58;;;;;;;5.00;4.50;;;-3.30;71.50;;;;;;5195864;28;20053;-70
2021/01/27 02:02:34;;;;;;;6.05;4.80;;;-3.20;71.80;;;;;;5195407;28;20432;-70
2021/01/27 02:05:15;;;;;;;5.93;4.90;;;-3.30;71.70;;;;;;5183667;28;20050;-71
2021/01/27 02:07:47;;;;;;;5.22;4.70;;;-3.30;72.00;;;;;;5191478;28;20096;-71
2021/01/27 02:10:20;;;;;;;6.13;5.00;;;-3.30;72.20;;;;;;5193839;28;20048;-73
2021/01/27 02:12:57;;;;;;;5.45;4.95;;;-3.20;72.50;;;;;;5192291;28;20060;-71
2021/01/27 02:15:40;;;;;;;5.43;4.93;;;-3.20;71.90;;;;;;5195252;28;20040;-70
2021/01/27 02:18:36;;;;;;;5.10;4.55;;;-3.20;71.90;;;;;;5190949;28;20052;-71
2021/01/27 02:21:19;;;;;;;5.38;4.57;;;-3.20;71.50;;;;;;5194772;28;20049;-72
2021/01/27 02:24:31;;;;;;;5.20;4.70;;;-3.30;71.50;;;;;;5194832;28;20037;-70
2021/01/27 02:27:08;;;;;;;5.10;4.60;;;-3.40;71.00;;;;;;5192746;28;20598;-71
2021/01/27 02:29:56;;;;;;;5.75;4.90;;;-3.40;71.50;;;;;;5195196;28;20465;-69
2021/01/27 02:33:00;;;;;;;6.22;5.07;;;-3.40;71.90;;;;;;5196987;28;20158;-69
2021/01/27 02:35:57;;;;;;;5.30;4.80;;;-3.50;71.50;;;;;;5192912;28;20049;-72
2021/01/27 02:38:39;;;;;;;5.47;4.97;;;-3.50;71.80;;;;;;5187414;28;20057;-70
2021/01/27 02:41:29;;;;;;;5.20;4.70;;;-3.40;71.90;;;;;;5187999;28;20633;-72
2021/01/27 02:44:08;;;;;;;5.47;4.88;;;-3.50;71.40;;;;;;5195150;28;20124;-70
2021/01/27 02:46:51;;;;;;;5.80;5.20;;;-3.50;71.40;;;;;;5193572;28;20064;-71
2021/01/27 02:49:22;;;;;;;5.43;4.93;;;-3.40;71.40;;;;;;5198351;28;20124;-69
2021/01/27 02:52:04;;;;;;;5.90;5.30;;;-3.40;72.20;;;;;;5198907;28;20030;-71
2021/01/27 02:54:45;;;;;;;5.93;4.85;;;-3.40;72.00;;;;;;5199035;28;20045;-69
2021/01/27 02:57:22;;;;;;;5.18;4.68;;;-3.40;71.70;;;;;;5197876;28;20103;-71
2021/01/27 03:00:12;;;;;;;5.05;4.55;;;-3.40;72.10;;;;;;5198873;28;20049;-70
2021/01/27 03:02:59;;;;;;;8.23;4.95;;;-3.40;72.30;;;;;;5196527;28;20108;-72
2021/01/27 03:05:34;;;;;;;7.18;4.85;;;-3.50;72.10;;;;;;5194700;28;20046;-71
2021/01/27 03:08:18;;;;;;;5.40;4.90;;;-3.50;72.40;;;;;;5198323;28;20544;-71
2021/01/27 03:11:12;;;;;;;5.80;5.20;;;-3.50;72.50;;;;;;5198136;28;20428;-71
2021/01/27 03:13:45;;;;;;;5.68;4.90;;;-3.50;72.20;;;;;;5198903;28;20770;-69
2021/01/27 03:16:47;;;;;;;7.05;4.72;;;-3.50;72.10;;;;;;5188780;28;20041;-71
2021/01/27 03:19:26;;;;;;;5.15;4.50;;;-3.40;71.90;;;;;;5198737;28;20056;-71
2021/01/27 03:22:02;;;;;;;5.43;4.93;;;-3.50;71.40;;;;;;5197652;28;20073;-71
2021/01/27 03:24:40;;;;;;;5.05;4.40;;;-3.40;71.10;;;;;;5199539;28;20296;-71
2021/01/27 03:27:21;;;;;;;5.20;4.60;;;-3.50;70.40;;;;;;5196982;28;20053;-69
2021/01/27 03:29:55;;;;;;;5.10;4.60;;;-3.50;70.40;;;;;;5198592;28;20041;-71
2021/01/27 03:32:50;;;;;;;5.60;5.00;;;-3.50;71.60;;;;;;5198275;28;20068;-72
2021/01/27 03:35:40;;;;;;;5.30;4.70;;;-3.50;71.30;;;;;;5196671;28;20045;-72
2021/01/27 03:38:23;;;;;;;6.13;5.10;;;-3.60;72.20;;;;;;5197416;28;20057;-70
2021/01/27 03:41:02;;;;;;;5.32;4.80;;;-3.60;72.50;;;;;;5196425;28;20104;-70
2021/01/27 03:43:50;;;;;;;5.55;4.97;;;-3.60;73.10;;;;;;5196627;28;20045;-71
2021/01/27 03:46:43;;;;;;;6.10;5.50;;;-3.60;72.40;;;;;;5195806;28;20099;-70
2021/01/27 03:49:27;;;;;;;5.90;5.30;;;-3.60;73.00;;;;;;5184626;28;20053;-72
2021/01/27 03:52:08;;;;;;;6.07;5.35;;;-3.70;73.50;;;;;;5196909;28;20045;-70
2021/01/27 03:54:47;;;;;;;5.45;4.93;;;-3.60;73.20;;;;;;5196684;28;20448;-70
2021/01/27 03:57:25;;;;;;;6.72;5.78;;;-3.70;72.30;;;;;;5195027;28;20065;-71
2021/01/27 03:59:57;;;;;;;5.75;5.10;;;-3.70;72.70;;;;;;5190238;28;20048;-70
2021/01/27 04:02:29;;;;;;;6.20;5.15;;;-3.70;72.10;;;;;;5197794;28;20049;-70
2021/01/27 04:05:00;;;;;;;5.00;4.50;;;-3.70;71.60;;;;;;5197196;28;20049;-69
2021/01/27 04:07:32;;;;;;;4.97;4.47;;;-3.70;72.10;;;;;;5195481;28;20080;-72
2021/01/27 04:10:04;;;;;;;5.50;4.97;;;-3.70;71.60;;;;;;5195521;28;20107;-71
2021/01/27 04:12:35;;;;;;;5.20;4.70;;;-3.80;71.30;;;;;;5195710;28;20125;-70
2021/01/27 04:15:07;;;;;;;6.20;4.50;;;-3.80;71.40;;;;;;5197427;28;20132;-70
2021/01/27 04:17:39;;;;;;;5.07;4.40;;;-3.80;70.80;;;;;;5182991;28;20041;-72
2021/01/27 04:20:11;;;;;;;5.32;4.82;;;-3.80;70.90;;;;;;5212166;28;20041;-69
2021/01/27 04:22:42;;;;;;;5.18;4.57;;;-3.80;71.40;;;;;;5198014;28;20049;-73
2021/01/27 04:25:15;;;;;;;5.75;5.18;;;-3.70;71.60;;;;;;5194461;28;20392;-72
2021/01/27 04:27:47;;;;;;;5.90;5.13;;;-3.70;71.50;;;;;;5197349;28;20471;-73
2021/01/27 04:30:22;;;;;;;6.00;5.50;;;-3.60;71.60;;;;;;5195806;28;20525;-72
2021/01/27 04:32:54;;;;;;;5.30;4.63;;;-3.60;71.80;;;;;;5198035;28;20088;-71
2021/01/27 04:35:26;;;;;;;5.63;5.13;;;-3.60;72.50;;;;;;5195062;28;20041;-70
2021/01/27 04:37:59;;;;;;;5.80;5.20;;;-3.60;72.80;;;;;;5195355;28;20188;-70
2021/01/27 04:40:37;;;;;;;5.20;4.70;;;-3.60;72.10;;;;;;5197282;28;20041;-72
2021/01/27 04:43:32;;;;;;;5.85;5.13;;;-3.60;71.90;;;;;;5197398;28;20045;-71
2021/01/27 04:46:14;;;;;;;7.07;4.80;;;-3.50;72.70;;;;;;5190254;28;20041;-71
2021/01/27 04:49:23;;;;;;;7.05;5.60;;;-3.50;72.50;;;;;;5195200;28;20044;-70
2021/01/27 04:52:20;;;;;;;5.80;5.20;;;-3.50;73.20;;;;;;5183620;28;20673;-70
2021/01/27 04:55:36;;;;;;;5.72;5.07;;;-3.50;73.20;;;;;;5196878;28;20037;-72
2021/01/27 04:58:35;;;;;;;6.80;5.40;;;-3.50;73.00;;;;;;5137117;28;20061;-73
2021/01/27 05:01:31;;;;;;;7.00;5.57;;;-3.60;72.20;;;;;;5125612;28;20061;-70
2021/01/27 05:04:24;;;;;;;6.05;5.45;;;-3.60;72.50;;;;;;5191261;28;20076;-72
2021/01/27 05:07:03;;;;;;;5.80;5.30;;;-3.70;73.10;;;;;;5193836;28;20120;-70
2021/01/27 05:09:55;;;;;;;6.30;5.70;;;-3.70;73.00;;;;;;5194577;28;20126;-71
2021/01/27 05:12:55;;;;;;;6.20;5.63;;;-3.70;72.20;;;;;;5193290;28;20042;-71
2021/01/27 05:15:27;;;;;;;6.35;5.70;;;-3.70;72.00;;;;;;5164656;28;20191;-71
2021/01/27 05:17:58;;;;;;;6.45;5.85;;;-3.60;71.40;;;;;;5210693;28;20504;-72
2021/01/27 05:20:34;;;;;;;7.15;5.78;;;-3.60;71.80;;;;;;5195867;28;20124;-72
2021/01/27 05:23:06;;;;;;;6.15;5.55;;;-3.60;72.00;;;;;;5196970;28;20053;-72
2021/01/27 05:25:45;;;;;;;6.32;5.72;;;-3.60;71.70;;;;;;5186325;28;20103;-72
2021/01/27 05:28:23;;;;;;;5.90;5.40;;;-3.60;70.90;;;;;;5195483;28;20041;-71
2021/01/27 05:30:56;;;;;;;5.70;5.20;;;-3.70;71.60;;;;;;5195756;28;20657;-69
2021/01/27 05:33:51;;;;;;;6.32;5.43;;;-3.70;71.70;;;;;;5195043;28;20099;-69
2021/01/27 05:36:28;;;;;;;6.60;6.00;;;-3.60;71.90;;;;;;5209706;28;20762;-70
2021/01/27 05:39:14;;;;;;;5.85;5.35;;;-3.60;71.70;;;;;;5201303;28;20608;-69
2021/01/27 05:41:46;;;;;;;6.90;5.40;;;-3.60;72.00;;;;;;5193465;28;20420;-71
2021/01/27 05:44:26;;;;;;;5.65;5.15;;;-3.60;72.10;;;;;;5195531;28;20042;-72
2021/01/27 05:47:24;;;;;;;5.57;5.07;;;-3.60;72.20;;;;;;5192374;28;20835;-69
2021/01/27 05:49:55;;;;;;;6.20;5.60;;;-3.60;72.80;;;;;;5178944;28;20045;-69
2021/01/27 05:52:27;;;;;;;5.78;5.22;;;-3.60;71.90;;;;;;5193039;28;20544;-72
2021/01/27 05:55:07;;;;;;;5.70;5.20;;;-3.60;71.90;;;;;;5170921;28;20037;-70
2021/01/27 05:57:40;;;;;;;5.40;4.90;;;-3.60;71.90;;;;;;5191000;28;20057;-72
2021/01/27 06:00:30;;;;;;;6.13;5.53;;;-3.50;72.20;;;;;;5193135;28;20167;-70
2021/01/27 06:03:02;;;;;;;5.60;5.10;;;-3.50;72.90;;;;;;5196695;28;20073;-72
2021/01/27 06:05:37;;;;;;;6.10;5.50;;;-3.50;73.50;;;;;;5191256;28;20063;-71
2021/01/27 06:08:15;;;;;;;6.95;6.10;;;-3.60;74.00;;;;;;5191440;28;20037;-71
2021/01/27 06:10:47;;;;;;;6.85;5.13;;;-3.60;73.90;;;;;;5193513;28;20029;-72
2021/01/27 06:13:23;;;;;;;5.88;5.28;;;-3.70;73.90;;;;;;5188927;28;20042;-72
2021/01/27 06:15:55;;;;;;;5.78;5.18;;;-3.70;74.50;;;;;;5193028;28;20045;-70
2021/01/27 06:18:29;;;;;;;6.03;5.43;;;-3.80;74.10;;;;;;5189922;28;20045;-70
2021/01/27 06:21:34;;;;;;;6.10;5.55;;;-3.80;74.10;;;;;;5193710;28;20049;-70
2021/01/27 06:24:15;;;;;;;5.97;5.47;;;-3.70;74.20;;;;;;5191046;28;20095;-71
2021/01/27 06:26:55;;;;;;;6.28;5.68;;;-3.70;74.40;;;;;;5188674;28;20045;-73
2021/01/27 06:29:48;;;;;;;5.88;5.38;;;-3.70;74.50;;;;;;5194047;28;20065;-70
2021/01/27 06:32:29;;;;;;;6.13;5.55;;;-3.70;74.30;;;;;;5193557;28;20041;-72
2021/01/27 06:35:45;;;;;;;6.70;6.10;;;-3.70;74.40;;;;;;5192846;28;20073;-72
2021/01/27 06:38:40;;;;;;;5.70;5.10;;;-3.60;74.10;;;;;;5185092;28;20673;-73
2021/01/27 06:41:38;;;;;;;6.10;4.85;;;-3.60;74.10;;;;;;5190887;28;20049;-70
2021/01/27 06:44:18;;;;;;;5.32;4.75;;;-3.60;74.40;;;;;;5194959;28;20041;-70
2021/01/27 06:47:05;;;;;;;6.75;5.13;;;-3.60;74.40;;;;;;5189312;28;20073;-71
2021/01/27 06:50:09;;;;;;;6.25;5.65;;;-3.60;74.30;;;;;;5188502;28;20033;-74
2021/01/27 06:53:04;;;;;;;6.10;5.50;;;-3.60;73.90;;;;;;5192004;28;20125;-72
2021/01/27 06:56:02;;;;;;;6.40;5.80;;;-3.50;73.50;;;;;;5185157;28;20524;-71
2021/01/27 06:58:42;;;;;;;6.22;5.68;;;-3.50;73.60;;;;;;5195066;28;20076;-74
2021/01/27 07:01:50;;;;;;;7.30;6.60;;;-3.50;73.60;;;;;;5194864;28;20049;-72
2021/01/27 07:04:47;;;;;;;6.88;6.28;;;-3.50;74.80;;;;;;5191659;28;20046;-74
2021/01/27 07:07:31;;;;;;;6.95;6.13;;;-3.40;75.00;;;;;;5172032;28;20622;-73
2021/01/27 07:10:20;;;;;;;;;;;-3.50;74.10;;;;;;5207852;28;20064;-73
2021/01/27 07:13:04;;;;;;;6.75;6.15;;;-3.40;73.30;;;;;;5193904;28;19978;-72
2021/01/27 07:16:05;;;;;;;7.25;6.45;;;-3.30;73.30;;;;;;5194818;28;20049;-73
2021/01/27 07:18:55;;;;;;;7.20;6.50;;;-3.30;73.30;;;;;;5176148;28;20455;-72
2021/01/27 07:21:55;;;;;;;7.10;6.50;;;-3.20;73.90;;;;;;5195346;28;20056;-71
2021/01/27 07:24:39;;;;;;;7.18;6.47;;;-3.20;73.80;;;;;;5200810;28;20123;-74
2021/01/27 07:27:22;;;;;;;6.70;6.10;;;-3.20;72.90;;;;;;5190740;28;20053;-73
2021/01/27 07:30:11;;;;;;;6.57;5.97;;;-3.20;71.80;;;;;;5194397;28;20756;-72
2021/01/27 07:32:56;;;;;;;7.25;6.63;;;-3.10;71.40;;;;;;5193033;28;20107;-72
2021/01/27 07:35:39;;;;;;;9.68;7.50;;;-3.10;71.50;;;;;;5190092;28;20515;-72
2021/01/27 07:38:17;;;;;;;8.27;7.47;;;-3.00;71.20;;;;;;5179261;28;20041;-72
2021/01/27 07:41:05;;;;;;;6.70;6.10;;;-3.00;71.50;;;;;;5195911;28;20041;-73
2021/01/27 07:43:57;;;;;;;6.53;5.93;;;-2.90;71.40;;;;;;5198630;28;20065;-72
2021/01/27 07:46:42;;;;;;;6.40;5.80;;;-2.80;71.60;;;;;;5197890;28;20049;-73
2021/01/27 07:49:21;;;;;;;6.72;6.13;;;-2.80;71.80;;;;;;5197611;28;20091;-72
2021/01/27 07:52:05;;;;;;;6.57;5.97;;;-2.80;71.30;;;;;;5179363;28;20107;-72
2021/01/27 07:54:43;;;;;;;6.50;5.90;;;-2.70;71.30;;;;;;5206317;28;20041;-73
2021/01/27 07:57:43;;;;;;;9.98;6.85;;;-2.60;70.50;;;;;;5196347;28;20124;-73
2021/01/27 08:00:22;;;;;;;12.68;10.27;;;-2.60;69.90;;;;;;5197681;28;20630;-74
2021/01/27 08:03:05;;;;;;;14.77;11.15;;;-2.60;70.90;;;;;;5196977;28;20094;-73
2021/01/27 08:05:41;;;;;;;7.00;6.40;;;-2.50;70.90;;;;;;5197600;28;20046;-74
2021/01/27 08:08:22;;;;;;;8.18;7.47;;;-2.40;69.70;;;;;;5196404;28;20429;-74
2021/01/27 08:10:54;;;;;;;7.63;6.93;;;-2.50;68.80;;;;;;5188564;28;20045;-73
2021/01/27 08:13:28;;;;;;;8.00;7.20;;;-2.50;69.00;;;;;;5176463;28;20049;-72
2021/01/27 08:16:26;;;;;;;7.68;6.97;;;-2.60;69.30;;;;;;5187510;28;20095;-74
2021/01/27 08:19:10;;;;;;;10.60;8.90;;;-2.50;69.20;;;;;;5196844;28;20037;-73
2021/01/27 08:21:50;;;;;;;8.55;7.70;;;-2.40;70.00;;;;;;5195859;28;20099;-74
2021/01/27 08:24:34;;;;;;;8.35;7.55;;;-2.30;69.60;;;;;;5196685;28;20049;-72
2021/01/27 08:27:17;;;;;;;8.88;7.95;;;-2.30;68.90;;;;;;5194012;28;20100;-72
2021/01/27 08:29:55;;;;;;;14.10;11.15;;;-2.30;67.80;;;;;;5196749;28;20057;-74
2021/01/27 08:32:32;;;;;;;16.80;11.95;;;-2.20;70.00;;;;;;5197053;28;20041;-72
2021/01/27 08:35:10;;;;;;;16.50;11.15;;;-2.10;69.80;;;;;;5211714;28;20046;-74
2021/01/27 08:37:41;;;;;;;14.40;10.75;;;-2.00;70.00;;;;;;5197007;28;20099;-74
2021/01/27 08:40:28;;;;;;;15.57;11.43;;;-1.90;70.10;;;;;;5196479;28;20393;-73
2021/01/27 08:43:01;;;;;;;20.88;14.65;;;-1.80;69.80;;;;;;5197631;28;20088;-72
2021/01/27 08:45:33;;;;;;;10.82;9.30;;;-1.70;69.20;;;;;;5196620;28;20698;-73
2021/01/27 08:48:06;;;;;;;9.93;8.93;;;-1.80;69.10;;;;;;5196448;28;20053;-72
2021/01/27 08:50:48;;;;;;;9.43;8.50;;;-1.90;68.20;;;;;;5196655;28;20509;-73
2021/01/27 08:53:22;;;;;;;9.43;8.52;;;-1.70;69.60;;;;;;5197913;28;20041;-73
2021/01/27 08:55:56;;;;;;;9.25;8.35;;;-1.60;68.30;;;;;;5195900;28;20610;-73
2021/01/27 08:58:39;;;;;;;9.68;8.68;;;-1.50;68.20;;;;;;5196079;28;20520;-73
2021/01/27 09:01:22;;;;;;;8.65;7.70;;;-1.50;68.10;;;;;;5193552;28;20123;-73
2021/01/27 09:03:56;;;;;;;9.02;8.13;;;-1.50;66.70;;;;;;5195542;28;20041;-72
2021/01/27 09:06:51;;;;;;;9.07;8.18;;;-1.40;67.00;;;;;;5189872;28;20857;-72
2021/01/27 09:09:27;;;;;;;8.55;7.72;;;-1.20;68.20;;;;;;5194914;28;20038;-73
2021/01/27 09:12:02;;;;;;;9.00;8.10;;;-1.10;66.70;;;;;;5187409;28;20037;-73
2021/01/27 09:14:34;;;;;;;9.40;8.50;;;-1.00;67.80;;;;;;5196490;28;20772;-73
2021/01/27 09:17:07;;;;;;;9.63;8.73;;;-0.80;68.20;;;;;;5189508;28;20590;-73
2021/01/27 09:19:39;;;;;;;9.55;8.20;;;-0.70;66.80;;;;;;5194622;28;20049;-73
2021/01/27 09:22:22;;;;;;;9.90;8.27;;;-0.60;66.40;;;;;;5183959;28;20050;-75
2021/01/27 09:24:56;;;;;;;9.55;8.55;;;-0.60;65.40;;;;;;5193318;28;20049;-74
2021/01/27 09:27:31;;;;;;;8.45;7.65;;;-0.50;65.30;;;;;;5192533;28;20527;-73
2021/01/27 09:30:09;;;;;;;9.05;8.13;;;-0.50;65.10;;;;;;5194493;28;20045;-74
2021/01/27 09:32:45;;;;;;;8.75;7.95;;;-0.40;65.60;;;;;;5194571;28;20523;-74
2021/01/27 09:35:22;;;;;;;9.02;8.23;;;-0.30;65.40;;;;;;5195355;28;20870;-74
2021/01/27 09:38:02;;;;;;;8.73;7.97;;;-0.20;65.10;;;;;;5194568;28;20436;-73
2021/01/27 09:40:41;;;;;;;18.70;16.10;;;-0.10;65.70;;;;;;5189029;28;20042;-74
2021/01/27 09:43:16;;;;;;;12.52;11.32;;;0.00;65.30;;;;;;5195493;28;20468;-73
2021/01/27 09:45:50;;;;;;;10.15;9.23;;;0.10;64.90;;;;;;5176620;28;20049;-75
2021/01/27 09:48:23;;;;;;;9.07;8.18;;;0.10;63.50;;;;;;5193669;28;20040;-73
2021/01/27 09:50:59;;;;;;;10.60;9.60;;;0.20;64.50;;;;;;5193643;28;20044;-73
2021/01/27 09:53:36;;;;;;;11.25;10.02;;;0.30;64.70;;;;;;5195711;28;20045;-74
2021/01/27 09:56:10;;;;;;;11.50;10.40;;;0.20;62.40;;;;;;5193441;28;20056;-74
2021/01/27 09:58:42;;;;;;;10.73;9.73;;;0.30;63.70;;;;;;5190770;28;20095;-73
2021/01/27 10:01:21;;;;;;;11.15;10.10;;;0.40;63.80;;;;;;5193555;28;20451;-73
2021/01/27 10:04:14;;;;;;;11.45;10.25;;;0.40;63.20;;;;;;5195236;28;20124;-74
2021/01/27 10:07:04;;;;;;;10.20;9.20;;;0.40;61.80;;;;;;5194017;28;20669;-73
2021/01/27 10:09:57;;;;;;;10.10;9.20;;;0.40;62.70;;;;;;5195188;28;20809;-74
2021/01/27 10:12:31;;;;;;;10.15;9.20;;;0.50;63.40;;;;;;5192811;28;20045;-72
2021/01/27 10:15:25;;;;;;;9.18;8.38;;;0.60;63.90;;;;;;5192409;28;20042;-74
2021/01/27 10:18:08;;;;;;;10.27;9.38;;;0.70;64.80;;;;;;5194599;28;20062;-73
2021/01/27 10:20:41;;;;;;;9.63;8.77;;;0.80;64.60;;;;;;5193020;28;20083;-75
2021/01/27 10:23:33;;;;;;;8.90;8.15;;;0.90;65.00;;;;;;5195046;28;20048;-73
2021/01/27 10:26:29;;;;;;;9.95;9.05;;;0.90;64.40;;;;;;5193257;28;20047;-74
2021/01/27 10:29:15;;;;;;;9.70;8.90;;;1.00;65.00;;;;;;5183870;28;20054;-73
2021/01/27 10:31:51;;;;;;;9.50;8.70;;;1.00;64.00;;;;;;5193198;28;20103;-74
2021/01/27 10:34:40;;;;;;;10.02;9.13;;;1.00;65.10;;;;;;5193850;28;20092;-73
2021/01/27 10:37:32;;;;;;;9.38;8.52;;;1.00;65.60;;;;;;5202156;28;20041;-74
2021/01/27 10:40:17;;;;;;;9.70;8.90;;;1.10;65.00;;;;;;5198986;28;20056;-73
2021/01/27 10:42:51;;;;;;;9.30;8.50;;;1.10;65.60;;;;;;5195169;28;20054;-74
2021/01/27 10:45:42;;;;;;;9.65;8.77;;;1.20;65.70;;;;;;5206842;28;20053;-73
2021/01/27 10:48:29;;;;;;;8.93;8.23;;;1.20;65.60;;;;;;5194927;28;20257;-74
2021/01/27 10:51:05;;;;;;;9.43;8.60;;;1.20;66.50;;;;;;5193468;28;20045;-73
2021/01/27 10:53:40;;;;;;;9.80;8.90;;;1.30;65.60;;;;;;5195825;28;20432;-74
2021/01/27 10:56:14;;;;;;;10.13;9.27;;;1.30;65.50;;;;;;5194328;28;20046;-74
2021/01/27 10:58:49;;;;;;;9.57;8.77;;;1.30;65.70;;;;;;5190408;28;20162;-74
2021/01/27 11:01:20;;;;;;;8.98;8.27;;;1.20;65.20;;;;;;5194522;28;20079;-75
2021/01/27 11:03:52;;;;;;;9.65;8.85;;;1.00;66.30;;;;;;5195841;28;20049;-73
2021/01/27 11:06:24;;;;;;;9.70;8.90;;;1.00;66.40;;;;;;5193781;28;20049;-74
2021/01/27 11:08:55;;;;;;;8.60;7.90;;;0.90;66.70;;;;;;5193077;28;20042;-74
2021/01/27 11:11:27;;;;;;;8.68;7.95;;;0.90;66.70;;;;;;5194630;28;20045;-74
2021/01/27 11:13:59;;;;;;;8.32;7.60;;;0.90;67.00;;;;;;5197275;28;20045;-73
2021/01/27 11:16:34;;;;;;;8.82;8.02;;;0.90;67.30;;;;;;5197914;28;20099;-74
2021/01/27 11:19:05;;;;;;;8.93;8.13;;;1.00;67.60;;;;;;5197512;28;20135;-72
2021/01/27 11:21:37;;;;;;;9.77;8.88;;;1.00;67.70;;;;;;5198202;28;20073;-73
2021/01/27 11:24:08;;;;;;;9.40;8.50;;;1.00;67.50;;;;;;5196831;28;20510;-75
2021/01/27 11:26:40;;;;;;;9.90;8.95;;;1.10;68.20;;;;;;5195702;28;20081;-73
2021/01/27 11:29:11;;;;;;;10.25;9.27;;;1.10;67.50;;;;;;5197207;28;20148;-74
2021/01/27 11:31:43;;;;;;;10.85;9.75;;;1.20;67.40;;;;;;5197202;28;20138;-74
2021/01/27 11:34:15;;;;;;;10.93;9.93;;;1.20;67.40;;;;;;5198681;28;20044;-72
2021/01/27 11:36:47;;;;;;;18.67;14.30;;;1.20;67.40;;;;;;5180924;28;20053;-73
2021/01/27 11:39:18;;;;;;;12.07;10.88;;;1.20;67.30;;;;;;5198071;28;20080;-74
2021/01/27 11:41:51;;;;;;;10.75;9.65;;;1.10;67.40;;;;;;5195013;28;20046;-74
2021/01/27 11:44:22;;;;;;;10.60;9.63;;;1.10;67.30;;;;;;5173249;28;20107;-73
2021/01/27 11:46:54;;;;;;;10.25;9.35;;;1.10;67.50;;;;;;5180912;28;20057;-73
2021/01/27 11:49:25;;;;;;;10.15;9.18;;;1.10;67.50;;;;;;5196767;28;20808;-72
2021/01/27 11:51:57;;;;;;;10.60;8.65;;;1.10;67.20;;;;;;5187400;28;20049;-75
2021/01/27 11:54:28;;;;;;;9.77;8.88;;;1.10;67.40;;;;;;5198153;28;20037;-73
2021/01/27 11:57:01;;;;;;;10.77;9.68;;;1.10;67.40;;;;;;5196518;28;20050;-73
2021/01/27 11:59:33;;;;;;;9.48;8.48;;;1.20;67.50;;;;;;5192561;28;20052;-75
2021/01/27 12:02:05;;;;;;;9.55;8.65;;;1.20;67.70;;;;;;5191402;28;20053;-74
2021/01/27 12:04:37;;;;;;;9.23;8.27;;;1.20;67.50;;;;;;5196183;28;20539;-73
2021/01/27 12:07:08;;;;;;;9.48;8.57;;;1.20;67.50;;;;;;5197543;28;20672;-73
2021/01/27 12:09:40;;;;;;;10.13;9.13;;;1.20;67.60;;;;;;5183820;28;20061;-73
2021/01/27 12:12:11;;;;;;;10.48;9.23;;;1.20;67.40;;;;;;5195404;28;20091;-74
2021/01/27 12:14:43;;;;;;;9.43;8.52;;;1.20;67.60;;;;;;5192832;28;20072;-74
2021/01/27 12:17:15;;;;;;;9.18;8.27;;;0.90;68.60;;;;;;5196694;28;20453;-73
2021/01/27 12:19:46;;;;;;;9.13;8.30;;;0.80;68.70;;;;;;5192392;28;20140;-74
2021/01/27 12:22:18;;;;;;;9.27;8.38;;;0.60;69.30;;;;;;5196610;28;20042;-75
2021/01/27 12:24:52;;;;;;;9.02;8.15;;;0.60;69.70;;;;;;5193969;28;20762;-73
2021/01/27 12:27:24;;;;;;;8.85;8.05;;;0.40;70.10;;;;;;5191044;28;20061;-74
2021/01/27 12:29:55;;;;;;;8.15;7.45;;;0.30;70.20;;;;;;5195696;28;20797;-72
2021/01/27 12:32:26;;;;;;;8.13;7.40;;;0.30;70.20;;;;;;5197755;28;20139;-73
2021/01/27 12:34:58;;;;;;;8.60;7.70;;;0.30;69.70;;;;;;5196106;28;20120;-75
2021/01/27 12:37:30;;;;;;;9.43;8.63;;;0.20;70.00;;;;;;5193850;28;20033;-73
2021/01/27 12:40:03;;;;;;;9.88;8.98;;;0.30;71.00;;;;;;5196613;28;20045;-73
2021/01/27 12:42:34;;;;;;;9.48;8.68;;;0.30;70.70;;;;;;5189202;28;20096;-74
2021/01/27 12:45:08;;;;;;;9.98;9.07;;;0.20;71.00;;;;;;5196306;28;20155;-74
2021/01/27 12:47:39;;;;;;;11.48;9.70;;;0.40;70.80;;;;;;5190630;28;20057;-74
2021/01/27 12:50:13;;;;;;;9.57;8.68;;;0.30;71.00;;;;;;5188637;28;20413;-74
2021/01/27 12:52:44;;;;;;;9.98;9.05;;;0.10;71.10;;;;;;5195135;28;20034;-74
2021/01/27 12:55:18;;;;;;;9.75;8.85;;;0.10;71.80;;;;;;5200286;28;20049;-75
2021/01/27 12:57:49;;;;;;;11.95;10.85;;;0.20;71.80;;;;;;5196416;28;20123;-74
2021/01/27 13:00:24;;;;;;;11.02;9.98;;;0.40;71.50;;;;;;5198295;28;20516;-73
2021/01/27 13:02:56;;;;;;;14.20;12.23;;;0.20;71.70;;;;;;5196033;28;20056;-74
2021/01/27 13:05:28;;;;;;;37.97;25.38;;;0.10;72.60;;;;;;5196692;28;20733;-74
2021/01/27 13:07:59;;;;;;;17.75;14.45;;;0.20;72.60;;;;;;5209537;28;20041;-73
2021/01/27 13:10:31;;;;;;;11.70;10.50;;;0.40;71.20;;;;;;5195122;28;20068;-73
2021/01/27 13:13:03;;;;;;;11.13;10.13;;;0.50;71.60;;;;;;5192686;28;20041;-74
2021/01/27 13:15:34;;;;;;;10.20;9.30;;;0.60;70.80;;;;;;5195230;28;20053;-73
2021/01/27 13:18:07;;;;;;;13.05;11.70;;;0.70;70.70;;;;;;5194111;28;20471;-73
2021/01/27 13:20:38;;;;;;;11.25;10.15;;;0.80;71.10;;;;;;5195362;28;20041;-72
2021/01/27 13:23:10;;;;;;;11.13;10.13;;;0.70;71.50;;;;;;5156944;28;20053;-73
2021/01/27 13:25:41;;;;;;;11.25;10.02;;;0.80;70.70;;;;;;5189270;28;20677;-70
2021/01/27 13:28:13;;;;;;;11.32;10.23;;;0.60;71.40;;;;;;5189567;28;20424;-73
2021/01/27 13:30:46;;;;;;;11.27;10.20;;;0.40;72.10;;;;;;5193345;28;20128;-72
2021/01/27 13:33:18;;;;;;;11.07;10.07;;;0.30;73.00;;;;;;5190823;28;20037;-73
2021/01/27 13:35:52;;;;;;;12.18;11.05;;;0.40;72.50;;;;;;5193401;28;20042;-73
2021/01/27 13:38:24;;;;;;;12.02;10.98;;;0.40;72.20;;;;;;5195058;28;20137;-72
2021/01/27 13:40:55;;;;;;;12.05;10.95;;;0.50;72.90;;;;;;5187118;28;20046;-72
2021/01/27 13:43:27;;;;;;;11.10;10.10;;;0.50;72.40;;;;;;5194076;28;20583;-74
2021/01/27 13:45:58;;;;;;;11.88;10.75;;;0.70;71.70;;;;;;5191672;28;20041;-72